sensor_id;sensor_type;location;lat;lon;timestamp;pressure;altitude;pressure_sealevel;temperature;humidity
21658;BME280;10990;48.174;9.782;2022-10-24T00:01:17;92686.94;;;14.20;100.00
21658;BME280;10990;48.174;9.782;2022-10-24T00:03:44;92692.72;;;14.17;100.00
21658;BME280;10990;48.174;9.782;2022-10-24T00:06:13;92681.03;;;14.18;100.00
21658;BME280;10990;48.174;9.782;2022-10-24T00:08:41;92677.28;;;14.14;100.00
21658;BME280;10990;48.174;9.782;2022-10-24T00:11:09;92678.09;;;14.15;100.00
21658;BME280;10990;48.174;9.782;2022-10-24T00:13:36;92671.47;;;14.17;100.00
21658;BME280;10990;48.174;9.782;2022-10-24T00:16:03;92664.78;;;14.15;100.00
21658;BME280;10990;48.174;9.782;2022-10-24T00:18:30;92642.47;;;14.16;100.00
21658;BME280;10990;48.174;9.782;2022-10-24T00:20:57;92631.53;;;14.12;100.00
21658;BME280;10990;48.174;9.782;2022-10-24T00:23:25;92624.06;;;14.09;100.00
21658;BME280;10990;48.174;9.782;2022-10-24T00:25:52;92601.00;;;14.15;100.00
21658;BME280;10990;48.174;9.782;2022-10-24T00:28:18;92587.00;;;14.19;100.00
21658;BME280;10990;48.174;9.782;2022-10-24T00:30:49;92556.44;;;14.22;100.00
21658;BME280;10990;48.174;9.782;2022-10-24T00:33:17;92570.47;;;14.17;100.00
21658;BME280;10990;48.174;9.782;2022-10-24T00:35:43;92555.13;;;14.24;100.00
21658;BME280;10990;48.174;9.782;2022-10-24T00:38:10;92557.56;;;14.26;100.00
21658;BME280;10990;48.174;9.782;2022-10-24T00:40:38;92543.78;;;14.29;100.00
21658;BME280;10990;48.174;9.782;2022-10-24T00:43:13;92543.53;;;14.30;100.00
21658;BME280;10990;48.174;9.782;2022-10-24T00:45:44;92544.28;;;14.26;100.00
21658;BME280;10990;48.174;9.782;2022-10-24T00:48:15;92546.63;;;14.22;100.00
21658;BME280;10990;48.174;9.782;2022-10-24T00:50:44;92542.69;;;14.25;100.00
21658;BME280;10990;48.174;9.782;2022-10-24T00:53:11;92538.69;;;14.27;100.00
21658;BME280;10990;48.174;9.782;2022-10-24T00:55:41;92536.78;;;14.23;100.00
21658;BME280;10990;48.174;9.782;2022-10-24T00:58:08;92523.75;;;14.21;100.00
21658;BME280;10990;48.174;9.782;2022-10-24T01:00:36;92532.78;;;14.20;100.00
21658;BME280;10990;48.174;9.782;2022-10-24T01:03:03;92528.75;;;14.18;100.00
21658;BME280;10990;48.174;9.782;2022-10-24T01:05:35;92523.22;;;14.19;100.00
21658;BME280;10990;48.174;9.782;2022-10-24T01:08:09;92514.75;;;14.22;100.00
21658;BME280;10990;48.174;9.782;2022-10-24T01:10:50;92521.28;;;14.15;100.00
21658;BME280;10990;48.174;9.782;2022-10-24T01:13:26;92519.22;;;14.22;100.00
21658;BME280;10990;48.174;9.782;2022-10-24T01:16:04;92513.72;;;14.28;100.00
21658;BME280;10990;48.174;9.782;2022-10-24T01:18:37;92524.66;;;14.32;100.00
21658;BME280;10990;48.174;9.782;2022-10-24T01:21:11;92545.69;;;14.33;100.00
21658;BME280;10990;48.174;9.782;2022-10-24T01:23:52;92559.00;;;14.33;100.00
21658;BME280;10990;48.174;9.782;2022-10-24T01:26:35;92569.91;;;14.37;100.00
21658;BME280;10990;48.174;9.782;2022-10-24T01:29:07;92567.84;;;14.44;100.00
21658;BME280;10990;48.174;9.782;2022-10-24T01:31:41;92590.69;;;14.40;100.00
21658;BME280;10990;48.174;9.782;2022-10-24T01:34:15;92593.34;;;14.40;100.00
21658;BME280;10990;48.174;9.782;2022-10-24T01:36:48;92608.56;;;14.45;100.00
21658;BME280;10990;48.174;9.782;2022-10-24T01:39:19;92616.94;;;14.53;100.00
21658;BME280;10990;48.174;9.782;2022-10-24T01:41:47;92643.59;;;14.59;100.00
21658;BME280;10990;48.174;9.782;2022-10-24T01:44:17;92663.50;;;14.56;100.00
21658;BME280;10990;48.174;9.782;2022-10-24T01:46:50;92677.09;;;14.60;100.00
21658;BME280;10990;48.174;9.782;2022-10-24T01:49:21;92689.59;;;14.59;100.00
21658;BME280;10990;48.174;9.782;2022-10-24T01:51:52;92704.75;;;14.59;100.00
21658;BME280;10990;48.174;9.782;2022-10-24T01:54:21;92725.53;;;14.62;100.00
21658;BME280;10990;48.174;9.782;2022-10-24T01:56:48;92745.19;;;14.61;100.00
21658;BME280;10990;48.174;9.782;2022-10-24T01:59:39;92756.16;;;14.64;100.00
21658;BME280;10990;48.174;9.782;2022-10-24T02:02:11;92780.56;;;14.61;100.00
21658;BME280;10990;48.174;9.782;2022-10-24T02:04:48;92791.84;;;14.68;100.00
21658;BME280;10990;48.174;9.782;2022-10-24T02:07:17;92805.63;;;14.65;100.00
21658;BME280;10990;48.174;9.782;2022-10-24T02:09:47;92815.63;;;14.58;100.00
21658;BME280;10990;48.174;9.782;2022-10-24T02:12:16;92815.47;;;14.65;100.00
21658;BME280;10990;48.174;9.782;2022-10-24T02:14:45;92834.09;;;14.65;100.00
21658;BME280;10990;48.174;9.782;2022-10-24T02:17:16;92841.03;;;14.66;100.00
21658;BME280;10990;48.174;9.782;2022-10-24T02:19:43;92835.50;;;14.72;100.00
21658;BME280;10990;48.174;9.782;2022-10-24T02:22:18;92835.28;;;14.74;100.00
21658;BME280;10990;48.174;9.782;2022-10-24T02:24:49;92860.44;;;14.66;100.00
21658;BME280;10990;48.174;9.782;2022-10-24T02:27:21;92865.53;;;14.68;100.00
21658;BME280;10990;48.174;9.782;2022-10-24T02:29:53;92871.34;;;14.65;100.00
21658;BME280;10990;48.174;9.782;2022-10-24T02:32:26;92859.72;;;14.71;100.00
21658;BME280;10990;48.174;9.782;2022-10-24T02:34:54;92864.56;;;14.57;100.00
21658;BME280;10990;48.174;9.782;2022-10-24T02:37:23;92851.63;;;14.49;100.00
21658;BME280;10990;48.174;9.782;2022-10-24T02:39:52;92830.72;;;14.52;100.00
21658;BME280;10990;48.174;9.782;2022-10-24T02:42:21;92851.50;;;14.55;100.00
21658;BME280;10990;48.174;9.782;2022-10-24T02:44:49;92860.34;;;14.61;100.00
21658;BME280;10990;48.174;9.782;2022-10-24T02:47:18;92852.63;;;14.60;100.00
21658;BME280;10990;48.174;9.782;2022-10-24T02:49:48;92843.59;;;14.61;100.00
21658;BME280;10990;48.174;9.782;2022-10-24T02:52:15;92847.50;;;14.53;100.00
21658;BME280;10990;48.174;9.782;2022-10-24T02:54:41;92844.34;;;14.56;100.00
21658;BME280;10990;48.174;9.782;2022-10-24T02:57:08;92830.78;;;14.57;100.00
21658;BME280;10990;48.174;9.782;2022-10-24T02:59:35;92811.84;;;14.54;100.00
21658;BME280;10990;48.174;9.782;2022-10-24T03:02:02;92823.88;;;14.56;100.00
21658;BME280;10990;48.174;9.782;2022-10-24T03:04:28;92829.19;;;14.56;100.00
21658;BME280;10990;48.174;9.782;2022-10-24T03:06:56;92842.72;;;14.55;100.00
21658;BME280;10990;48.174;9.782;2022-10-24T03:09:23;92841.81;;;14.49;100.00
21658;BME280;10990;48.174;9.782;2022-10-24T03:11:50;92822.06;;;14.45;100.00
21658;BME280;10990;48.174;9.782;2022-10-24T03:14:16;92802.72;;;14.50;100.00
21658;BME280;10990;48.174;9.782;2022-10-24T03:16:43;92795.19;;;14.59;100.00
21658;BME280;10990;48.174;9.782;2022-10-24T03:19:10;92805.97;;;14.52;100.00
21658;BME280;10990;48.174;9.782;2022-10-24T03:21:37;92800.88;;;14.50;100.00
21658;BME280;10990;48.174;9.782;2022-10-24T03:24:06;92783.06;;;14.51;100.00
21658;BME280;10990;48.174;9.782;2022-10-24T03:26:33;92772.44;;;14.51;100.00
21658;BME280;10990;48.174;9.782;2022-10-24T03:29:00;92767.25;;;14.44;100.00
21658;BME280;10990;48.174;9.782;2022-10-24T03:31:27;92774.63;;;14.37;100.00
21658;BME280;10990;48.174;9.782;2022-10-24T03:33:55;92742.94;;;14.35;100.00
21658;BME280;10990;48.174;9.782;2022-10-24T03:36:21;92727.50;;;14.32;100.00
21658;BME280;10990;48.174;9.782;2022-10-24T03:38:48;92708.72;;;14.39;100.00
21658;BME280;10990;48.174;9.782;2022-10-24T03:41:16;92695.94;;;14.36;100.00
21658;BME280;10990;48.174;9.782;2022-10-24T03:43:43;92679.97;;;14.36;100.00
21658;BME280;10990;48.174;9.782;2022-10-24T03:46:10;92655.38;;;14.46;100.00
21658;BME280;10990;48.174;9.782;2022-10-24T03:48:36;92650.25;;;14.39;100.00
21658;BME280;10990;48.174;9.782;2022-10-24T03:51:03;92650.28;;;14.44;100.00
21658;BME280;10990;48.174;9.782;2022-10-24T03:53:30;92653.69;;;14.40;100.00
21658;BME280;10990;48.174;9.782;2022-10-24T03:55:57;92642.00;;;14.41;100.00
21658;BME280;10990;48.174;9.782;2022-10-24T03:58:26;92638.66;;;14.28;100.00
21658;BME280;10990;48.174;9.782;2022-10-24T04:00:53;92632.06;;;14.31;100.00
21658;BME280;10990;48.174;9.782;2022-10-24T04:03:22;92619.25;;;14.28;100.00
21658;BME280;10990;48.174;9.782;2022-10-24T04:05:49;92610.00;;;14.30;100.00
21658;BME280;10990;48.174;9.782;2022-10-24T04:08:16;92598.00;;;14.28;100.00
21658;BME280;10990;48.174;9.782;2022-10-24T04:10:43;92581.56;;;14.31;100.00
21658;BME280;10990;48.174;9.782;2022-10-24T04:13:10;92594.28;;;14.29;100.00
21658;BME280;10990;48.174;9.782;2022-10-24T04:15:38;92594.03;;;14.30;100.00
21658;BME280;10990;48.174;9.782;2022-10-24T04:18:05;92590.25;;;14.26;100.00
21658;BME280;10990;48.174;9.782;2022-10-24T04:20:32;92577.75;;;14.27;100.00
21658;BME280;10990;48.174;9.782;2022-10-24T04:22:59;92563.13;;;14.24;100.00
21658;BME280;10990;48.174;9.782;2022-10-24T04:25:26;92550.66;;;14.25;100.00
21658;BME280;10990;48.174;9.782;2022-10-24T04:27:53;92542.13;;;14.23;100.00
21658;BME280;10990;48.174;9.782;2022-10-24T04:30:19;92530.91;;;14.21;100.00
21658;BME280;10990;48.174;9.782;2022-10-24T04:32:47;92522.94;;;14.21;100.00
21658;BME280;10990;48.174;9.782;2022-10-24T04:35:14;92514.41;;;14.19;100.00
21658;BME280;10990;48.174;9.782;2022-10-24T04:37:41;92512.56;;;14.19;100.00
21658;BME280;10990;48.174;9.782;2022-10-24T04:40:09;92505.69;;;14.23;100.00
21658;BME280;10990;48.174;9.782;2022-10-24T04:42:35;92508.34;;;14.23;100.00
21658;BME280;10990;48.174;9.782;2022-10-24T04:45:03;92516.91;;;14.25;100.00
21658;BME280;10990;48.174;9.782;2022-10-24T04:47:29;92520.28;;;14.21;100.00
21658;BME280;10990;48.174;9.782;2022-10-24T04:49:58;92518.69;;;14.20;100.00
21658;BME280;10990;48.174;9.782;2022-10-24T04:52:24;92519.44;;;14.15;100.00
21658;BME280;10990;48.174;9.782;2022-10-24T04:54:51;92524.50;;;14.17;100.00
21658;BME280;10990;48.174;9.782;2022-10-24T04:57:18;92516.47;;;14.11;100.00
21658;BME280;10990;48.174;9.782;2022-10-24T04:59:45;92515.09;;;14.09;100.00
21658;BME280;10990;48.174;9.782;2022-10-24T05:02:12;92510.84;;;14.08;100.00
21658;BME280;10990;48.174;9.782;2022-10-24T05:04:38;92495.28;;;14.17;100.00
21658;BME280;10990;48.174;9.782;2022-10-24T05:07:07;92480.88;;;14.12;100.00
21658;BME280;10990;48.174;9.782;2022-10-24T05:09:34;92447.38;;;14.11;100.00
21658;BME280;10990;48.174;9.782;2022-10-24T05:12:00;92435.63;;;14.07;100.00
21658;BME280;10990;48.174;9.782;2022-10-24T05:14:27;92434.84;;;14.07;100.00
21658;BME280;10990;48.174;9.782;2022-10-24T05:16:54;92415.19;;;14.08;100.00
21658;BME280;10990;48.174;9.782;2022-10-24T05:19:21;92409.03;;;14.02;100.00
21658;BME280;10990;48.174;9.782;2022-10-24T05:21:48;92398.13;;;14.04;100.00
21658;BME280;10990;48.174;9.782;2022-10-24T05:24:16;92405.56;;;14.02;100.00
21658;BME280;10990;48.174;9.782;2022-10-24T05:26:42;92397.84;;;14.00;100.00
21658;BME280;10990;48.174;9.782;2022-10-24T05:29:09;92388.22;;;13.94;100.00
21658;BME280;10990;48.174;9.782;2022-10-24T05:31:36;92372.53;;;13.93;100.00
21658;BME280;10990;48.174;9.782;2022-10-24T05:34:03;92364.59;;;13.98;100.00
21658;BME280;10990;48.174;9.782;2022-10-24T05:36:30;92372.03;;;13.96;100.00
21658;BME280;10990;48.174;9.782;2022-10-24T05:38:56;92361.91;;;13.93;100.00
21658;BME280;10990;48.174;9.782;2022-10-24T05:41:25;92344.09;;;13.93;100.00
21658;BME280;10990;48.174;9.782;2022-10-24T05:43:51;92323.41;;;13.95;100.00
21658;BME280;10990;48.174;9.782;2022-10-24T05:46:18;92320.19;;;13.93;100.00
21658;BME280;10990;48.174;9.782;2022-10-24T05:48:45;92314.38;;;13.96;100.00
21658;BME280;10990;48.174;9.782;2022-10-24T05:51:12;92322.59;;;13.95;100.00
21658;BME280;10990;48.174;9.782;2022-10-24T05:53:38;92319.44;;;13.98;100.00
21658;BME280;10990;48.174;9.782;2022-10-24T05:56:05;92304.56;;;13.97;100.00
21658;BME280;10990;48.174;9.782;2022-10-24T05:58:33;92298.94;;;13.93;100.00
21658;BME280;10990;48.174;9.782;2022-10-24T06:01:00;92276.09;;;13.92;100.00
21658;BME280;10990;48.174;9.782;2022-10-24T06:03:27;92244.28;;;13.97;100.00
21658;BME280;10990;48.174;9.782;2022-10-24T06:05:54;92209.22;;;14.00;100.00
21658;BME280;10990;48.174;9.782;2022-10-24T06:08:20;92210.56;;;14.03;100.00
21658;BME280;10990;48.174;9.782;2022-10-24T06:10:49;92185.34;;;14.05;100.00
21658;BME280;10990;48.174;9.782;2022-10-24T06:13:16;92172.03;;;14.00;100.00
21658;BME280;10990;48.174;9.782;2022-10-24T06:15:44;92180.56;;;14.07;100.00
21658;BME280;10990;48.174;9.782;2022-10-24T06:18:11;92194.91;;;14.06;100.00
21658;BME280;10990;48.174;9.782;2022-10-24T06:20:38;92201.53;;;14.04;100.00
21658;BME280;10990;48.174;9.782;2022-10-24T06:23:05;92218.22;;;13.99;100.00
21658;BME280;10990;48.174;9.782;2022-10-24T06:25:31;92226.19;;;13.99;100.00
21658;BME280;10990;48.174;9.782;2022-10-24T06:27:58;92240.22;;;13.89;100.00
21658;BME280;10990;48.174;9.782;2022-10-24T06:30:25;92220.88;;;13.94;100.00
21658;BME280;10990;48.174;9.782;2022-10-24T06:32:53;92215.00;;;13.92;100.00
21658;BME280;10990;48.174;9.782;2022-10-24T06:35:20;92219.56;;;13.97;100.00
21658;BME280;10990;48.174;9.782;2022-10-24T06:37:47;92214.78;;;13.99;100.00
21658;BME280;10990;48.174;9.782;2022-10-24T06:40:14;92203.63;;;14.02;100.00
21658;BME280;10990;48.174;9.782;2022-10-24T06:42:41;92196.78;;;14.06;100.00
21658;BME280;10990;48.174;9.782;2022-10-24T06:45:08;92193.31;;;14.10;100.00
21658;BME280;10990;48.174;9.782;2022-10-24T06:47:35;92198.13;;;14.08;100.00
21658;BME280;10990;48.174;9.782;2022-10-24T06:50:05;92192.53;;;14.10;100.00
21658;BME280;10990;48.174;9.782;2022-10-24T06:52:32;92205.56;;;14.11;100.00
21658;BME280;10990;48.174;9.782;2022-10-24T06:54:59;92193.91;;;14.18;100.00
21658;BME280;10990;48.174;9.782;2022-10-24T06:57:26;92186.50;;;14.20;100.00
21658;BME280;10990;48.174;9.782;2022-10-24T06:59:53;92195.00;;;14.22;100.00
21658;BME280;10990;48.174;9.782;2022-10-24T07:02:20;92198.75;;;14.26;100.00
21658;BME280;10990;48.174;9.782;2022-10-24T07:04:47;92209.94;;;14.28;100.00
21658;BME280;10990;48.174;9.782;2022-10-24T07:07:16;92215.78;;;14.30;100.00
21658;BME280;10990;48.174;9.782;2022-10-24T07:09:44;92221.09;;;14.25;100.00
21658;BME280;10990;48.174;9.782;2022-10-24T07:12:16;92222.16;;;14.29;100.00
21658;BME280;10990;48.174;9.782;2022-10-24T07:14:43;92234.38;;;14.25;100.00
21658;BME280;10990;48.174;9.782;2022-10-24T07:17:09;92254.81;;;14.24;100.00
21658;BME280;10990;48.174;9.782;2022-10-24T07:19:36;92248.16;;;14.22;100.00
21658;BME280;10990;48.174;9.782;2022-10-24T07:22:03;92258.78;;;14.22;100.00
21658;BME280;10990;48.174;9.782;2022-10-24T07:24:32;92248.97;;;14.27;100.00
21658;BME280;10990;48.174;9.782;2022-10-24T07:26:59;92230.94;;;14.29;100.00
21658;BME280;10990;48.174;9.782;2022-10-24T07:29:25;92220.06;;;14.31;100.00
21658;BME280;10990;48.174;9.782;2022-10-24T07:31:52;92217.63;;;14.29;100.00
21658;BME280;10990;48.174;9.782;2022-10-24T07:34:20;92219.50;;;14.29;100.00
21658;BME280;10990;48.174;9.782;2022-10-24T07:36:46;92200.91;;;14.29;100.00
21658;BME280;10990;48.174;9.782;2022-10-24T07:39:13;92210.41;;;14.20;100.00
21658;BME280;10990;48.174;9.782;2022-10-24T07:41:42;92200.41;;;14.37;100.00
21658;BME280;10990;48.174;9.782;2022-10-24T07:44:09;92202.31;;;14.42;100.00
21658;BME280;10990;48.174;9.782;2022-10-24T07:46:36;92224.88;;;14.39;100.00
21658;BME280;10990;48.174;9.782;2022-10-24T07:49:03;92200.19;;;14.49;100.00
21658;BME280;10990;48.174;9.782;2022-10-24T07:51:30;92220.41;;;14.45;100.00
21658;BME280;10990;48.174;9.782;2022-10-24T07:53:57;92218.78;;;14.44;100.00
21658;BME280;10990;48.174;9.782;2022-10-24T07:56:24;92236.88;;;14.42;100.00
21658;BME280;10990;48.174;9.782;2022-10-24T07:58:53;92254.41;;;14.43;100.00
21658;BME280;10990;48.174;9.782;2022-10-24T08:01:22;92268.78;;;14.42;100.00
21658;BME280;10990;48.174;9.782;2022-10-24T08:03:49;92275.72;;;14.48;100.00
21658;BME280;10990;48.174;9.782;2022-10-24T08:06:19;92284.56;;;14.53;100.00
21658;BME280;10990;48.174;9.782;2022-10-24T08:08:47;92297.56;;;14.55;100.00
21658;BME280;10990;48.174;9.782;2022-10-24T08:11:15;92318.59;;;14.56;100.00
21658;BME280;10990;48.174;9.782;2022-10-24T08:13:43;92327.38;;;14.57;100.00
21658;BME280;10990;48.174;9.782;2022-10-24T08:16:13;92337.31;;;14.72;100.00
21658;BME280;10990;48.174;9.782;2022-10-24T08:18:40;92359.69;;;14.76;100.00
21658;BME280;10990;48.174;9.782;2022-10-24T08:21:10;92377.00;;;14.78;100.00
21658;BME280;10990;48.174;9.782;2022-10-24T08:23:38;92400.09;;;14.73;100.00
21658;BME280;10990;48.174;9.782;2022-10-24T08:26:07;92380.47;;;14.79;100.00
21658;BME280;10990;48.174;9.782;2022-10-24T08:28:35;92382.66;;;14.87;100.00
21658;BME280;10990;48.174;9.782;2022-10-24T08:31:03;92363.03;;;14.98;100.00
21658;BME280;10990;48.174;9.782;2022-10-24T08:33:32;92375.00;;;15.01;100.00
21658;BME280;10990;48.174;9.782;2022-10-24T08:36:00;92379.50;;;15.00;100.00
21658;BME280;10990;48.174;9.782;2022-10-24T08:38:28;92393.56;;;14.91;100.00
21658;BME280;10990;48.174;9.782;2022-10-24T08:40:56;92389.28;;;14.85;100.00
21658;BME280;10990;48.174;9.782;2022-10-24T08:43:23;92385.50;;;14.75;100.00
21658;BME280;10990;48.174;9.782;2022-10-24T08:45:57;92378.31;;;14.76;100.00
21658;BME280;10990;48.174;9.782;2022-10-24T08:48:33;92391.00;;;14.69;100.00
21658;BME280;10990;48.174;9.782;2022-10-24T08:51:10;92409.69;;;14.74;100.00
21658;BME280;10990;48.174;9.782;2022-10-24T08:53:38;92422.13;;;14.68;100.00
21658;BME280;10990;48.174;9.782;2022-10-24T08:56:09;92435.47;;;14.73;100.00
21658;BME280;10990;48.174;9.782;2022-10-24T08:58:40;92451.16;;;14.70;100.00
21658;BME280;10990;48.174;9.782;2022-10-24T09:01:13;92468.19;;;14.74;100.00
21658;BME280;10990;48.174;9.782;2022-10-24T09:03:45;92501.75;;;14.80;100.00
21658;BME280;10990;48.174;9.782;2022-10-24T09:06:16;92518.28;;;14.82;100.00
21658;BME280;10990;48.174;9.782;2022-10-24T09:08:49;92541.38;;;14.76;100.00
21658;BME280;10990;48.174;9.782;2022-10-24T09:11:25;92553.66;;;14.83;100.00
21658;BME280;10990;48.174;9.782;2022-10-24T09:13:54;92567.25;;;14.86;100.00
21658;BME280;10990;48.174;9.782;2022-10-24T09:16:22;92581.84;;;14.84;100.00
21658;BME280;10990;48.174;9.782;2022-10-24T09:18:53;92581.56;;;14.80;100.00
21658;BME280;10990;48.174;9.782;2022-10-24T09:21:21;92592.25;;;14.85;100.00
21658;BME280;10990;48.174;9.782;2022-10-24T09:23:49;92593.63;;;14.88;100.00
21658;BME280;10990;48.174;9.782;2022-10-24T09:26:21;92589.38;;;14.87;100.00
21658;BME280;10990;48.174;9.782;2022-10-24T09:28:49;92602.66;;;14.87;100.00
21658;BME280;10990;48.174;9.782;2022-10-24T09:31:18;92619.59;;;14.75;100.00
21658;BME280;10990;48.174;9.782;2022-10-24T09:33:47;92641.84;;;14.69;100.00
21658;BME280;10990;48.174;9.782;2022-10-24T09:36:17;92668.81;;;14.56;100.00
21658;BME280;10990;48.174;9.782;2022-10-24T09:38:45;92659.34;;;14.65;100.00
21658;BME280;10990;48.174;9.782;2022-10-24T09:41:16;92675.97;;;14.55;100.00
21658;BME280;10990;48.174;9.782;2022-10-24T09:43:50;92671.53;;;14.61;100.00
21658;BME280;10990;48.174;9.782;2022-10-24T09:46:20;92667.06;;;14.67;100.00
21658;BME280;10990;48.174;9.782;2022-10-24T09:48:51;92669.50;;;14.68;100.00
21658;BME280;10990;48.174;9.782;2022-10-24T09:51:24;92678.19;;;14.64;100.00
21658;BME280;10990;48.174;9.782;2022-10-24T09:54:06;92670.28;;;14.69;100.00
21658;BME280;10990;48.174;9.782;2022-10-24T09:56:35;92659.47;;;14.75;100.00
21658;BME280;10990;48.174;9.782;2022-10-24T09:59:18;92635.63;;;14.86;100.00
21658;BME280;10990;48.174;9.782;2022-10-24T10:01:45;92643.38;;;14.87;100.00
21658;BME280;10990;48.174;9.782;2022-10-24T10:04:16;92653.97;;;14.82;100.00
21658;BME280;10990;48.174;9.782;2022-10-24T10:06:46;92636.53;;;14.96;100.00
21658;BME280;10990;48.174;9.782;2022-10-24T10:09:18;92637.97;;;15.04;100.00
21658;BME280;10990;48.174;9.782;2022-10-24T10:11:54;92658.03;;;14.90;100.00
21658;BME280;10990;48.174;9.782;2022-10-24T10:14:23;92670.28;;;14.91;100.00
21658;BME280;10990;48.174;9.782;2022-10-24T10:16:58;92687.13;;;14.74;100.00
21658;BME280;10990;48.174;9.782;2022-10-24T10:19:34;92691.63;;;14.74;100.00
21658;BME280;10990;48.174;9.782;2022-10-24T10:22:04;92700.72;;;14.78;100.00
21658;BME280;10990;48.174;9.782;2022-10-24T10:24:37;92708.41;;;14.74;100.00
21658;BME280;10990;48.174;9.782;2022-10-24T10:27:26;92726.44;;;14.72;100.00
21658;BME280;10990;48.174;9.782;2022-10-24T10:30:14;92730.03;;;14.61;100.00
21658;BME280;10990;48.174;9.782;2022-10-24T10:32:50;92733.75;;;14.60;100.00
21658;BME280;10990;48.174;9.782;2022-10-24T10:35:21;92734.25;;;14.57;100.00
21658;BME280;10990;48.174;9.782;2022-10-24T10:37:54;92746.63;;;14.51;100.00
21658;BME280;10990;48.174;9.782;2022-10-24T10:40:28;92759.84;;;14.46;100.00
21658;BME280;10990;48.174;9.782;2022-10-24T10:43:20;92756.25;;;14.52;100.00
21658;BME280;10990;48.174;9.782;2022-10-24T10:46:02;92766.09;;;14.52;100.00
21658;BME280;10990;48.174;9.782;2022-10-24T10:48:41;92759.28;;;14.61;100.00
21658;BME280;10990;48.174;9.782;2022-10-24T10:51:15;92744.66;;;14.59;100.00
21658;BME280;10990;48.174;9.782;2022-10-24T10:53:51;92729.72;;;14.57;100.00
21658;BME280;10990;48.174;9.782;2022-10-24T10:56:30;92705.66;;;14.69;100.00
21658;BME280;10990;48.174;9.782;2022-10-24T10:59:16;92682.22;;;14.66;100.00
21658;BME280;10990;48.174;9.782;2022-10-24T11:01:51;92682.22;;;14.66;100.00
21658;BME280;10990;48.174;9.782;2022-10-24T11:04:27;92669.06;;;14.76;100.00
21658;BME280;10990;48.174;9.782;2022-10-24T11:07:01;92657.13;;;14.79;100.00
21658;BME280;10990;48.174;9.782;2022-10-24T11:09:36;92656.19;;;14.68;100.00
21658;BME280;10990;48.174;9.782;2022-10-24T11:12:12;92670.84;;;14.71;100.00
21658;BME280;10990;48.174;9.782;2022-10-24T11:14:45;92679.06;;;14.69;100.00
21658;BME280;10990;48.174;9.782;2022-10-24T11:17:19;92678.78;;;14.66;100.00
21658;BME280;10990;48.174;9.782;2022-10-24T11:20:05;92670.72;;;14.61;100.00
21658;BME280;10990;48.174;9.782;2022-10-24T11:22:36;92675.75;;;14.57;100.00
21658;BME280;10990;48.174;9.782;2022-10-24T11:25:18;92670.66;;;14.55;100.00
21658;BME280;10990;48.174;9.782;2022-10-24T11:27:49;92691.69;;;14.57;100.00
21658;BME280;10990;48.174;9.782;2022-10-24T11:30:34;92685.09;;;14.60;100.00
21658;BME280;10990;48.174;9.782;2022-10-24T11:33:03;92694.16;;;14.64;100.00
21658;BME280;10990;48.174;9.782;2022-10-24T11:35:36;92664.53;;;14.77;100.00
21658;BME280;10990;48.174;9.782;2022-10-24T11:38:13;92655.31;;;14.85;100.00
21658;BME280;10990;48.174;9.782;2022-10-24T11:40:46;92669.13;;;14.82;100.00
21658;BME280;10990;48.174;9.782;2022-10-24T11:43:20;92673.00;;;14.74;100.00
21658;BME280;10990;48.174;9.782;2022-10-24T11:45:53;92666.09;;;14.73;100.00
21658;BME280;10990;48.174;9.782;2022-10-24T11:48:29;92654.16;;;14.75;100.00
21658;BME280;10990;48.174;9.782;2022-10-24T11:51:05;92651.16;;;14.72;100.00
21658;BME280;10990;48.174;9.782;2022-10-24T11:53:56;92600.13;;;14.75;100.00
21658;BME280;10990;48.174;9.782;2022-10-24T11:56:30;92617.72;;;14.76;100.00
21658;BME280;10990;48.174;9.782;2022-10-24T11:59:01;92639.00;;;14.76;100.00
21658;BME280;10990;48.174;9.782;2022-10-24T12:04:45;92651.16;;;14.72;100.00
21658;BME280;10990;48.174;9.782;2022-10-24T12:07:34;92669.72;;;14.67;100.00
21658;BME280;10990;48.174;9.782;2022-10-24T12:10:28;92645.06;;;14.71;100.00
21658;BME280;10990;48.174;9.782;2022-10-24T12:13:17;92628.28;;;14.71;100.00
21658;BME280;10990;48.174;9.782;2022-10-24T12:15:54;92635.78;;;14.74;100.00
21658;BME280;10990;48.174;9.782;2022-10-24T12:18:28;92674.94;;;14.56;100.00
21658;BME280;10990;48.174;9.782;2022-10-24T12:21:00;92661.44;;;14.63;100.00
21658;BME280;10990;48.174;9.782;2022-10-24T12:23:28;92666.41;;;14.76;100.00
21658;BME280;10990;48.174;9.782;2022-10-24T12:26:03;92680.06;;;14.85;100.00
21658;BME280;10990;48.174;9.782;2022-10-24T12:28:33;92710.63;;;14.83;100.00
21658;BME280;10990;48.174;9.782;2022-10-24T12:31:15;92737.91;;;14.95;100.00
21658;BME280;10990;48.174;9.782;2022-10-24T12:33:45;92780.66;;;14.88;100.00
21658;BME280;10990;48.174;9.782;2022-10-24T12:36:13;92795.16;;;14.97;100.00
21658;BME280;10990;48.174;9.782;2022-10-24T12:39:07;92806.06;;;14.96;100.00
21658;BME280;10990;48.174;9.782;2022-10-24T12:41:36;92825.97;;;14.93;100.00
21658;BME280;10990;48.174;9.782;2022-10-24T12:44:38;92864.28;;;14.92;100.00
21658;BME280;10990;48.174;9.782;2022-10-24T12:47:32;92887.91;;;14.89;100.00
21658;BME280;10990;48.174;9.782;2022-10-24T12:53:04;92896.44;;;14.91;100.00
21658;BME280;10990;48.174;9.782;2022-10-24T12:58:33;92916.63;;;14.87;100.00
21658;BME280;10990;48.174;9.782;2022-10-24T13:01:04;92916.84;;;14.85;100.00
21658;BME280;10990;48.174;9.782;2022-10-24T13:03:49;92927.19;;;14.82;100.00
21658;BME280;10990;48.174;9.782;2022-10-24T13:06:25;92918.47;;;14.86;100.00
21658;BME280;10990;48.174;9.782;2022-10-24T13:09:07;92928.97;;;14.76;100.00
21658;BME280;10990;48.174;9.782;2022-10-24T13:11:49;92928.97;;;14.76;100.00
21658;BME280;10990;48.174;9.782;2022-10-24T13:14:31;92961.59;;;14.71;100.00
21658;BME280;10990;48.174;9.782;2022-10-24T13:17:09;92961.13;;;14.91;100.00